sensor_id;sensor_type;location;lat;lon;timestamp;P1;durP1;ratioP1;P2;durP2;ratioP2
7316;SDS011;3699;51.462;6.696;2022-11-15T00:00:56;14.60;;;9.47;;
7316;SDS011;3699;51.462;6.696;2022-11-15T00:03:23;13.67;;;9.40;;
7316;SDS011;3699;51.462;6.696;2022-11-15T00:05:51;13.80;;;9.97;;
7316;SDS011;3699;51.462;6.696;2022-11-15T00:08:18;13.63;;;9.83;;
7316;SDS011;3699;51.462;6.696;2022-11-15T00:10:53;14.50;;;9.53;;
7316;SDS011;3699;51.462;6.696;2022-11-15T00:13:21;15.33;;;9.97;;
7316;SDS011;3699;51.462;6.696;2022-11-15T00:15:47;12.70;;;9.37;;
7316;SDS011;3699;51.462;6.696;2022-11-15T00:18:16;14.43;;;10.83;;
7316;SDS011;3699;51.462;6.696;2022-11-15T00:20:43;13.17;;;10.00;;
7316;SDS011;3699;51.462;6.696;2022-11-15T00:23:10;14.63;;;9.57;;
7316;SDS011;3699;51.462;6.696;2022-11-15T00:25:37;14.90;;;9.80;;
7316;SDS011;3699;51.462;6.696;2022-11-15T00:28:03;14.07;;;9.93;;
7316;SDS011;3699;51.462;6.696;2022-11-15T00:30:30;16.60;;;10.27;;
7316;SDS011;3699;51.462;6.696;2022-11-15T00:33:00;15.90;;;10.83;;
7316;SDS011;3699;51.462;6.696;2022-11-15T00:35:30;21.10;;;11.23;;
7316;SDS011;3699;51.462;6.696;2022-11-15T00:37:58;13.37;;;9.50;;
7316;SDS011;3699;51.462;6.696;2022-11-15T00:40:24;12.43;;;10.10;;
7316;SDS011;3699;51.462;6.696;2022-11-15T00:42:51;12.73;;;10.30;;
7316;SDS011;3699;51.462;6.696;2022-11-15T00:45:18;15.03;;;9.67;;
7316;SDS011;3699;51.462;6.696;2022-11-15T00:47:45;13.60;;;9.50;;
7316;SDS011;3699;51.462;6.696;2022-11-15T00:50:12;14.40;;;10.40;;
7316;SDS011;3699;51.462;6.696;2022-11-15T00:52:40;18.53;;;9.50;;
7316;SDS011;3699;51.462;6.696;2022-11-15T00:55:08;16.93;;;9.60;;
7316;SDS011;3699;51.462;6.696;2022-11-15T00:57:38;15.20;;;9.80;;
7316;SDS011;3699;51.462;6.696;2022-11-15T01:00:06;13.47;;;9.43;;
7316;SDS011;3699;51.462;6.696;2022-11-15T01:02:33;16.53;;;10.60;;
7316;SDS011;3699;51.462;6.696;2022-11-15T01:05:00;10.80;;;8.80;;
7316;SDS011;3699;51.462;6.696;2022-11-15T01:07:27;11.90;;;9.00;;
7316;SDS011;3699;51.462;6.696;2022-11-15T01:09:55;13.20;;;9.53;;
7316;SDS011;3699;51.462;6.696;2022-11-15T01:12:22;16.07;;;10.00;;
7316;SDS011;3699;51.462;6.696;2022-11-15T01:14:49;11.90;;;8.93;;
7316;SDS011;3699;51.462;6.696;2022-11-15T01:17:16;14.27;;;9.73;;
7316;SDS011;3699;51.462;6.696;2022-11-15T01:19:42;11.63;;;9.10;;
7316;SDS011;3699;51.462;6.696;2022-11-15T01:22:09;14.07;;;9.70;;
7316;SDS011;3699;51.462;6.696;2022-11-15T01:24:36;16.50;;;9.97;;
7316;SDS011;3699;51.462;6.696;2022-11-15T01:27:04;14.40;;;9.13;;
7316;SDS011;3699;51.462;6.696;2022-11-15T01:29:31;13.90;;;9.37;;
7316;SDS011;3699;51.462;6.696;2022-11-15T01:31:57;11.10;;;9.00;;
7316;SDS011;3699;51.462;6.696;2022-11-15T01:34:24;17.47;;;9.47;;
7316;SDS011;3699;51.462;6.696;2022-11-15T01:36:51;14.27;;;9.73;;
7316;SDS011;3699;51.462;6.696;2022-11-15T01:39:17;16.27;;;9.40;;
7316;SDS011;3699;51.462;6.696;2022-11-15T01:41:44;13.33;;;8.90;;
7316;SDS011;3699;51.462;6.696;2022-11-15T01:47:10;17.00;;;9.40;;
7316;SDS011;3699;51.462;6.696;2022-11-15T01:49:41;11.47;;;9.53;;
7316;SDS011;3699;51.462;6.696;2022-11-15T01:52:17;15.80;;;9.63;;
7316;SDS011;3699;51.462;6.696;2022-11-15T01:54:47;15.13;;;9.53;;
7316;SDS011;3699;51.462;6.696;2022-11-15T01:57:16;10.77;;;8.33;;
7316;SDS011;3699;51.462;6.696;2022-11-15T01:59:44;11.53;;;8.90;;
7316;SDS011;3699;51.462;6.696;2022-11-15T02:02:12;10.33;;;8.60;;
7316;SDS011;3699;51.462;6.696;2022-11-15T02:04:40;14.03;;;9.57;;
7316;SDS011;3699;51.462;6.696;2022-11-15T02:07:08;12.80;;;8.97;;
7316;SDS011;3699;51.462;6.696;2022-11-15T02:09:37;16.13;;;9.63;;
7316;SDS011;3699;51.462;6.696;2022-11-15T02:12:04;13.77;;;9.80;;
7316;SDS011;3699;51.462;6.696;2022-11-15T02:14:33;14.27;;;8.90;;
7316;SDS011;3699;51.462;6.696;2022-11-15T02:17:05;12.47;;;9.23;;
7316;SDS011;3699;51.462;6.696;2022-11-15T02:22:42;15.30;;;9.30;;
7316;SDS011;3699;51.462;6.696;2022-11-15T02:25:28;14.50;;;8.77;;
7316;SDS011;3699;51.462;6.696;2022-11-15T02:28:10;17.70;;;9.80;;
7316;SDS011;3699;51.462;6.696;2022-11-15T02:30:55;11.03;;;8.30;;
7316;SDS011;3699;51.462;6.696;2022-11-15T02:33:31;15.13;;;8.70;;
7316;SDS011;3699;51.462;6.696;2022-11-15T02:36:05;13.10;;;8.63;;
7316;SDS011;3699;51.462;6.696;2022-11-15T02:38:38;15.37;;;8.07;;
7316;SDS011;3699;51.462;6.696;2022-11-15T02:41:13;11.00;;;8.00;;
7316;SDS011;3699;51.462;6.696;2022-11-15T02:43:44;11.60;;;8.90;;
7316;SDS011;3699;51.462;6.696;2022-11-15T02:46:23;11.93;;;8.60;;
7316;SDS011;3699;51.462;6.696;2022-11-15T02:49:07;10.97;;;8.40;;
7316;SDS011;3699;51.462;6.696;2022-11-15T02:51:35;13.13;;;8.23;;
7316;SDS011;3699;51.462;6.696;2022-11-15T02:54:02;12.33;;;9.03;;
7316;SDS011;3699;51.462;6.696;2022-11-15T02:56:29;14.67;;;8.83;;
7316;SDS011;3699;51.462;6.696;2022-11-15T02:59:02;11.70;;;8.40;;
7316;SDS011;3699;51.462;6.696;2022-11-15T03:01:43;14.60;;;8.87;;
7316;SDS011;3699;51.462;6.696;2022-11-15T03:04:23;10.13;;;8.03;;
7316;SDS011;3699;51.462;6.696;2022-11-15T03:06:57;14.67;;;9.03;;
7316;SDS011;3699;51.462;6.696;2022-11-15T03:09:29;12.63;;;9.13;;
7316;SDS011;3699;51.462;6.696;2022-11-15T03:12:07;16.53;;;9.53;;
7316;SDS011;3699;51.462;6.696;2022-11-15T03:14:39;11.80;;;9.13;;
7316;SDS011;3699;51.462;6.696;2022-11-15T03:17:14;11.03;;;8.77;;
7316;SDS011;3699;51.462;6.696;2022-11-15T03:19:46;12.50;;;8.87;;
7316;SDS011;3699;51.462;6.696;2022-11-15T03:22:15;12.73;;;8.27;;
7316;SDS011;3699;51.462;6.696;2022-11-15T03:24:45;17.83;;;9.20;;
7316;SDS011;3699;51.462;6.696;2022-11-15T03:27:15;13.27;;;8.17;;
7316;SDS011;3699;51.462;6.696;2022-11-15T03:29:47;16.27;;;7.83;;
7316;SDS011;3699;51.462;6.696;2022-11-15T03:32:21;12.07;;;8.60;;
7316;SDS011;3699;51.462;6.696;2022-11-15T03:34:52;12.27;;;9.57;;
7316;SDS011;3699;51.462;6.696;2022-11-15T03:37:25;14.17;;;8.77;;
7316;SDS011;3699;51.462;6.696;2022-11-15T03:39:58;12.90;;;9.27;;
7316;SDS011;3699;51.462;6.696;2022-11-15T03:42:27;11.40;;;9.00;;
7316;SDS011;3699;51.462;6.696;2022-11-15T03:44:59;13.13;;;8.70;;
7316;SDS011;3699;51.462;6.696;2022-11-15T03:47:34;11.10;;;9.10;;
7316;SDS011;3699;51.462;6.696;2022-11-15T03:50:06;15.33;;;8.73;;
7316;SDS011;3699;51.462;6.696;2022-11-15T03:52:36;13.57;;;9.47;;
7316;SDS011;3699;51.462;6.696;2022-11-15T03:55:03;15.30;;;8.80;;
7316;SDS011;3699;51.462;6.696;2022-11-15T03:57:32;12.90;;;8.57;;
7316;SDS011;3699;51.462;6.696;2022-11-15T03:59:59;14.10;;;8.80;;
7316;SDS011;3699;51.462;6.696;2022-11-15T04:02:25;11.63;;;9.50;;
7316;SDS011;3699;51.462;6.696;2022-11-15T04:04:54;12.70;;;9.03;;
7316;SDS011;3699;51.462;6.696;2022-11-15T04:07:21;13.37;;;8.73;;
7316;SDS011;3699;51.462;6.696;2022-11-15T04:09:48;12.53;;;8.13;;
7316;SDS011;3699;51.462;6.696;2022-11-15T04:12:30;11.63;;;8.37;;
7316;SDS011;3699;51.462;6.696;2022-11-15T04:15:01;14.20;;;8.70;;
7316;SDS011;3699;51.462;6.696;2022-11-15T04:17:34;11.27;;;8.17;;
7316;SDS011;3699;51.462;6.696;2022-11-15T04:20:04;12.80;;;8.73;;
7316;SDS011;3699;51.462;6.696;2022-11-15T04:22:51;10.90;;;7.83;;
7316;SDS011;3699;51.462;6.696;2022-11-15T04:25:38;10.60;;;8.03;;
7316;SDS011;3699;51.462;6.696;2022-11-15T04:28:05;11.53;;;8.40;;
7316;SDS011;3699;51.462;6.696;2022-11-15T04:30:31;11.07;;;7.43;;
7316;SDS011;3699;51.462;6.696;2022-11-15T04:32:58;12.70;;;7.90;;
7316;SDS011;3699;51.462;6.696;2022-11-15T04:35:26;14.00;;;8.37;;
7316;SDS011;3699;51.462;6.696;2022-11-15T04:37:53;11.17;;;8.03;;
7316;SDS011;3699;51.462;6.696;2022-11-15T04:40:19;14.93;;;9.20;;
7316;SDS011;3699;51.462;6.696;2022-11-15T04:42:53;12.33;;;8.30;;
7316;SDS011;3699;51.462;6.696;2022-11-15T04:45:21;13.50;;;8.30;;
7316;SDS011;3699;51.462;6.696;2022-11-15T04:47:48;12.70;;;7.63;;
7316;SDS011;3699;51.462;6.696;2022-11-15T04:50:15;11.80;;;8.47;;
7316;SDS011;3699;51.462;6.696;2022-11-15T04:52:46;11.97;;;7.67;;
7316;SDS011;3699;51.462;6.696;2022-11-15T04:55:17;9.70;;;7.60;;
7316;SDS011;3699;51.462;6.696;2022-11-15T04:57:43;10.30;;;7.60;;
7316;SDS011;3699;51.462;6.696;2022-11-15T05:00:14;9.03;;;6.80;;
7316;SDS011;3699;51.462;6.696;2022-11-15T05:02:42;10.57;;;7.27;;
7316;SDS011;3699;51.462;6.696;2022-11-15T05:05:26;13.13;;;7.67;;
7316;SDS011;3699;51.462;6.696;2022-11-15T05:07:54;14.33;;;8.13;;
7316;SDS011;3699;51.462;6.696;2022-11-15T05:10:21;9.53;;;7.10;;
7316;SDS011;3699;51.462;6.696;2022-11-15T05:12:48;12.67;;;7.80;;
7316;SDS011;3699;51.462;6.696;2022-11-15T05:15:14;15.00;;;7.70;;
7316;SDS011;3699;51.462;6.696;2022-11-15T05:17:41;12.03;;;8.07;;
7316;SDS011;3699;51.462;6.696;2022-11-15T05:20:09;10.40;;;7.37;;
7316;SDS011;3699;51.462;6.696;2022-11-15T05:22:36;9.20;;;7.83;;
7316;SDS011;3699;51.462;6.696;2022-11-15T05:25:05;11.17;;;7.57;;
7316;SDS011;3699;51.462;6.696;2022-11-15T05:27:33;11.10;;;7.30;;
7316;SDS011;3699;51.462;6.696;2022-11-15T05:30:00;11.27;;;7.87;;
7316;SDS011;3699;51.462;6.696;2022-11-15T05:32:27;9.03;;;6.83;;
7316;SDS011;3699;51.462;6.696;2022-11-15T05:34:54;10.77;;;7.27;;
7316;SDS011;3699;51.462;6.696;2022-11-15T05:37:21;11.03;;;7.47;;
7316;SDS011;3699;51.462;6.696;2022-11-15T05:39:48;10.13;;;7.33;;
7316;SDS011;3699;51.462;6.696;2022-11-15T05:42:16;11.83;;;7.20;;
7316;SDS011;3699;51.462;6.696;2022-11-15T05:44:44;11.40;;;6.40;;
7316;SDS011;3699;51.462;6.696;2022-11-15T05:47:15;8.17;;;6.67;;
7316;SDS011;3699;51.462;6.696;2022-11-15T05:49:45;9.97;;;7.60;;
7316;SDS011;3699;51.462;6.696;2022-11-15T05:52:14;11.10;;;7.97;;
7316;SDS011;3699;51.462;6.696;2022-11-15T05:54:43;10.37;;;7.57;;
7316;SDS011;3699;51.462;6.696;2022-11-15T05:57:10;10.80;;;6.90;;
7316;SDS011;3699;51.462;6.696;2022-11-15T05:59:38;11.87;;;7.00;;
7316;SDS011;3699;51.462;6.696;2022-11-15T06:02:05;10.30;;;7.47;;
7316;SDS011;3699;51.462;6.696;2022-11-15T06:04:33;9.30;;;6.63;;
7316;SDS011;3699;51.462;6.696;2022-11-15T06:07:00;11.37;;;7.43;;
7316;SDS011;3699;51.462;6.696;2022-11-15T06:09:26;8.33;;;7.50;;
7316;SDS011;3699;51.462;6.696;2022-11-15T06:11:53;8.00;;;6.70;;
7316;SDS011;3699;51.462;6.696;2022-11-15T06:14:20;8.13;;;7.13;;
7316;SDS011;3699;51.462;6.696;2022-11-15T06:16:48;12.10;;;8.10;;
7316;SDS011;3699;51.462;6.696;2022-11-15T06:19:15;10.83;;;7.40;;
7316;SDS011;3699;51.462;6.696;2022-11-15T06:21:41;9.63;;;7.10;;
7316;SDS011;3699;51.462;6.696;2022-11-15T06:24:08;9.43;;;7.50;;
7316;SDS011;3699;51.462;6.696;2022-11-15T06:26:35;11.03;;;8.20;;
7316;SDS011;3699;51.462;6.696;2022-11-15T06:29:02;10.57;;;7.90;;
7316;SDS011;3699;51.462;6.696;2022-11-15T06:31:29;9.37;;;7.57;;
7316;SDS011;3699;51.462;6.696;2022-11-15T06:33:57;13.57;;;8.17;;
7316;SDS011;3699;51.462;6.696;2022-11-15T06:36:23;12.93;;;8.13;;
7316;SDS011;3699;51.462;6.696;2022-11-15T06:38:50;12.70;;;7.40;;
7316;SDS011;3699;51.462;6.696;2022-11-15T06:41:17;10.03;;;6.97;;
7316;SDS011;3699;51.462;6.696;2022-11-15T06:43:45;8.83;;;7.00;;
7316;SDS011;3699;51.462;6.696;2022-11-15T06:46:12;9.07;;;7.53;;
7316;SDS011;3699;51.462;6.696;2022-11-15T06:48:39;9.07;;;7.43;;
7316;SDS011;3699;51.462;6.696;2022-11-15T06:51:07;8.40;;;6.97;;
7316;SDS011;3699;51.462;6.696;2022-11-15T06:53:34;10.77;;;6.93;;
7316;SDS011;3699;51.462;6.696;2022-11-15T06:56:01;14.10;;;7.30;;
7316;SDS011;3699;51.462;6.696;2022-11-15T06:58:30;8.53;;;6.70;;
7316;SDS011;3699;51.462;6.696;2022-11-15T07:00:59;11.70;;;6.73;;
7316;SDS011;3699;51.462;6.696;2022-11-15T07:03:26;10.30;;;6.73;;
7316;SDS011;3699;51.462;6.696;2022-11-15T07:05:53;11.63;;;7.30;;
7316;SDS011;3699;51.462;6.696;2022-11-15T07:08:23;10.13;;;6.80;;
7316;SDS011;3699;51.462;6.696;2022-11-15T07:10:53;8.63;;;6.17;;
7316;SDS011;3699;51.462;6.696;2022-11-15T07:13:20;10.13;;;7.33;;
7316;SDS011;3699;51.462;6.696;2022-11-15T07:15:50;6.03;;;5.40;;
7316;SDS011;3699;51.462;6.696;2022-11-15T07:18:17;8.80;;;6.67;;
7316;SDS011;3699;51.462;6.696;2022-11-15T07:20:44;7.00;;;5.77;;
7316;SDS011;3699;51.462;6.696;2022-11-15T07:23:10;6.57;;;5.77;;
7316;SDS011;3699;51.462;6.696;2022-11-15T07:25:38;7.13;;;5.57;;
7316;SDS011;3699;51.462;6.696;2022-11-15T07:28:05;7.77;;;5.37;;
7316;SDS011;3699;51.462;6.696;2022-11-15T07:30:32;8.27;;;5.33;;
7316;SDS011;3699;51.462;6.696;2022-11-15T07:32:59;12.50;;;6.67;;
7316;SDS011;3699;51.462;6.696;2022-11-15T07:35:27;6.43;;;5.30;;
7316;SDS011;3699;51.462;6.696;2022-11-15T07:37:55;7.67;;;5.10;;
7316;SDS011;3699;51.462;6.696;2022-11-15T07:40:23;8.93;;;5.37;;
7316;SDS011;3699;51.462;6.696;2022-11-15T07:42:51;6.30;;;5.30;;
7316;SDS011;3699;51.462;6.696;2022-11-15T07:45:18;7.47;;;5.70;;
7316;SDS011;3699;51.462;6.696;2022-11-15T07:47:45;5.27;;;4.47;;
7316;SDS011;3699;51.462;6.696;2022-11-15T07:50:12;5.70;;;4.57;;
7316;SDS011;3699;51.462;6.696;2022-11-15T07:52:39;5.27;;;3.80;;
7316;SDS011;3699;51.462;6.696;2022-11-15T07:55:06;6.40;;;4.10;;
7316;SDS011;3699;51.462;6.696;2022-11-15T07:57:33;6.00;;;3.30;;
7316;SDS011;3699;51.462;6.696;2022-11-15T08:00:02;6.33;;;4.20;;
7316;SDS011;3699;51.462;6.696;2022-11-15T08:02:30;8.30;;;4.07;;
7316;SDS011;3699;51.462;6.696;2022-11-15T08:04:57;3.73;;;2.90;;
7316;SDS011;3699;51.462;6.696;2022-11-15T08:07:24;5.17;;;2.83;;
7316;SDS011;3699;51.462;6.696;2022-11-15T08:09:50;5.97;;;3.20;;
7316;SDS011;3699;51.462;6.696;2022-11-15T08:12:17;4.40;;;2.60;;
7316;SDS011;3699;51.462;6.696;2022-11-15T08:14:45;5.10;;;2.63;;
7316;SDS011;3699;51.462;6.696;2022-11-15T08:17:13;8.77;;;2.57;;
7316;SDS011;3699;51.462;6.696;2022-11-15T08:19:40;3.43;;;2.07;;
7316;SDS011;3699;51.462;6.696;2022-11-15T08:22:06;3.50;;;1.53;;
7316;SDS011;3699;51.462;6.696;2022-11-15T08:24:33;3.67;;;1.80;;
7316;SDS011;3699;51.462;6.696;2022-11-15T08:27:00;1.70;;;1.60;;
7316;SDS011;3699;51.462;6.696;2022-11-15T08:29:27;2.97;;;1.60;;
7316;SDS011;3699;51.462;6.696;2022-11-15T08:31:54;1.90;;;1.80;;
7316;SDS011;3699;51.462;6.696;2022-11-15T08:34:22;1.80;;;1.70;;
7316;SDS011;3699;51.462;6.696;2022-11-15T08:36:49;4.87;;;1.90;;
7316;SDS011;3699;51.462;6.696;2022-11-15T08:39:22;2.23;;;2.03;;
7316;SDS011;3699;51.462;6.696;2022-11-15T08:41:55;2.70;;;1.83;;
7316;SDS011;3699;51.462;6.696;2022-11-15T08:44:22;8.77;;;2.40;;
7316;SDS011;3699;51.462;6.696;2022-11-15T08:46:49;2.73;;;2.10;;
7316;SDS011;3699;51.462;6.696;2022-11-15T08:49:17;2.43;;;2.23;;
7316;SDS011;3699;51.462;6.696;2022-11-15T08:51:45;6.10;;;2.50;;
7316;SDS011;3699;51.462;6.696;2022-11-15T08:54:12;2.90;;;2.60;;
7316;SDS011;3699;51.462;6.696;2022-11-15T08:56:39;5.40;;;2.83;;
7316;SDS011;3699;51.462;6.696;2022-11-15T08:59:06;3.70;;;3.03;;
7316;SDS011;3699;51.462;6.696;2022-11-15T09:01:34;3.67;;;2.87;;
7316;SDS011;3699;51.462;6.696;2022-11-15T09:04:01;5.67;;;2.97;;
7316;SDS011;3699;51.462;6.696;2022-11-15T09:06:28;5.80;;;3.27;;
7316;SDS011;3699;51.462;6.696;2022-11-15T09:08:57;6.57;;;4.03;;
7316;SDS011;3699;51.462;6.696;2022-11-15T09:11:24;8.03;;;4.17;;
7316;SDS011;3699;51.462;6.696;2022-11-15T09:13:51;7.10;;;4.30;;
7316;SDS011;3699;51.462;6.696;2022-11-15T09:16:18;6.00;;;3.00;;
7316;SDS011;3699;51.462;6.696;2022-11-15T09:18:45;3.87;;;2.50;;
7316;SDS011;3699;51.462;6.696;2022-11-15T09:21:11;46.57;;;5.57;;
7316;SDS011;3699;51.462;6.696;2022-11-15T09:23:39;3.20;;;2.57;;
7316;SDS011;3699;51.462;6.696;2022-11-15T09:26:07;4.20;;;2.80;;
7316;SDS011;3699;51.462;6.696;2022-11-15T09:28:34;3.57;;;2.77;;
7316;SDS011;3699;51.462;6.696;2022-11-15T09:31:02;3.40;;;3.10;;
7316;SDS011;3699;51.462;6.696;2022-11-15T09:33:30;4.10;;;3.23;;
7316;SDS011;3699;51.462;6.696;2022-11-15T09:35:59;3.50;;;3.20;;
7316;SDS011;3699;51.462;6.696;2022-11-15T09:38:27;5.67;;;3.17;;
7316;SDS011;3699;51.462;6.696;2022-11-15T09:40:57;5.60;;;3.57;;
7316;SDS011;3699;51.462;6.696;2022-11-15T09:43:45;6.27;;;3.43;;
7316;SDS011;3699;51.462;6.696;2022-11-15T09:46:22;3.63;;;3.17;;
7316;SDS011;3699;51.462;6.696;2022-11-15T09:48:58;4.37;;;3.50;;
7316;SDS011;3699;51.462;6.696;2022-11-15T09:51:27;5.13;;;3.80;;
7316;SDS011;3699;51.462;6.696;2022-11-15T09:54:03;6.67;;;4.50;;
7316;SDS011;3699;51.462;6.696;2022-11-15T09:56:36;8.37;;;4.83;;
7316;SDS011;3699;51.462;6.696;2022-11-15T09:59:11;6.90;;;4.20;;
7316;SDS011;3699;51.462;6.696;2022-11-15T10:01:48;5.40;;;4.07;;
7316;SDS011;3699;51.462;6.696;2022-11-15T10:04:22;7.63;;;4.50;;
7316;SDS011;3699;51.462;6.696;2022-11-15T10:06:52;6.60;;;4.03;;
7316;SDS011;3699;51.462;6.696;2022-11-15T10:09:24;4.67;;;4.10;;
7316;SDS011;3699;51.462;6.696;2022-11-15T10:11:56;4.33;;;3.67;;
7316;SDS011;3699;51.462;6.696;2022-11-15T10:14:23;6.70;;;3.13;;
7316;SDS011;3699;51.462;6.696;2022-11-15T10:16:59;7.37;;;4.33;;
7316;SDS011;3699;51.462;6.696;2022-11-15T10:19:46;6.03;;;3.53;;
7316;SDS011;3699;51.462;6.696;2022-11-15T10:22:25;5.37;;;4.53;;
7316;SDS011;3699;51.462;6.696;2022-11-15T10:24:59;4.03;;;2.87;;
7316;SDS011;3699;51.462;6.696;2022-11-15T10:27:38;4.57;;;3.20;;
7316;SDS011;3699;51.462;6.696;2022-11-15T10:30:10;8.17;;;3.30;;
7316;SDS011;3699;51.462;6.696;2022-11-15T10:32:39;4.03;;;2.93;;
7316;SDS011;3699;51.462;6.696;2022-11-15T10:35:16;5.87;;;3.20;;
7316;SDS011;3699;51.462;6.696;2022-11-15T10:37:48;4.53;;;3.17;;
7316;SDS011;3699;51.462;6.696;2022-11-15T10:40:15;9.83;;;3.40;;
7316;SDS011;3699;51.462;6.696;2022-11-15T10:42:46;6.63;;;3.23;;
7316;SDS011;3699;51.462;6.696;2022-11-15T10:45:24;3.87;;;2.50;;
7316;SDS011;3699;51.462;6.696;2022-11-15T10:47:52;3.37;;;2.40;;
7316;SDS011;3699;51.462;6.696;2022-11-15T10:50:27;6.17;;;2.67;;
7316;SDS011;3699;51.462;6.696;2022-11-15T10:52:56;2.77;;;2.50;;
7316;SDS011;3699;51.462;6.696;2022-11-15T10:55:24;5.87;;;2.70;;
7316;SDS011;3699;51.462;6.696;2022-11-15T10:57:56;5.30;;;2.17;;
7316;SDS011;3699;51.462;6.696;2022-11-15T11:00:29;4.43;;;2.13;;
7316;SDS011;3699;51.462;6.696;2022-11-15T11:02:59;2.73;;;2.07;;
7316;SDS011;3699;51.462;6.696;2022-11-15T11:05:28;4.13;;;2.83;;
7316;SDS011;3699;51.462;6.696;2022-11-15T11:07:58;4.27;;;2.50;;
7316;SDS011;3699;51.462;6.696;2022-11-15T11:10:26;8.33;;;2.30;;
7316;SDS011;3699;51.462;6.696;2022-11-15T11:12:55;3.57;;;2.83;;
7316;SDS011;3699;51.462;6.696;2022-11-15T11:15:22;2.97;;;2.13;;
7316;SDS011;3699;51.462;6.696;2022-11-15T11:17:57;5.60;;;2.30;;
7316;SDS011;3699;51.462;6.696;2022-11-15T11:20:29;3.83;;;2.70;;
7316;SDS011;3699;51.462;6.696;2022-11-15T11:23:03;4.03;;;2.60;;
7316;SDS011;3699;51.462;6.696;2022-11-15T11:25:49;4.13;;;2.87;;
7316;SDS011;3699;51.462;6.696;2022-11-15T11:28:26;6.70;;;2.53;;
7316;SDS011;3699;51.462;6.696;2022-11-15T11:31:06;3.17;;;2.50;;
7316;SDS011;3699;51.462;6.696;2022-11-15T11:33:44;5.57;;;2.40;;
7316;SDS011;3699;51.462;6.696;2022-11-15T11:36:17;4.57;;;2.50;;
7316;SDS011;3699;51.462;6.696;2022-11-15T11:39:09;4.40;;;2.43;;
7316;SDS011;3699;51.462;6.696;2022-11-15T11:41:50;2.83;;;2.63;;
7316;SDS011;3699;51.462;6.696;2022-11-15T11:44:28;5.10;;;2.37;;
7316;SDS011;3699;51.462;6.696;2022-11-15T11:46:59;3.57;;;2.13;;
7316;SDS011;3699;51.462;6.696;2022-11-15T11:49:32;3.03;;;2.13;;
7316;SDS011;3699;51.462;6.696;2022-11-15T11:52:07;4.00;;;1.80;;
7316;SDS011;3699;51.462;6.696;2022-11-15T11:54:42;3.30;;;1.83;;
7316;SDS011;3699;51.462;6.696;2022-11-15T11:57:16;4.83;;;2.23;;
7316;SDS011;3699;51.462;6.696;2022-11-15T11:59:52;8.97;;;2.33;;
7316;SDS011;3699;51.462;6.696;2022-11-15T12:02:25;3.40;;;2.30;;
7316;SDS011;3699;51.462;6.696;2022-11-15T12:04:57;2.43;;;1.93;;
7316;SDS011;3699;51.462;6.696;2022-11-15T12:07:29;3.10;;;1.80;;
7316;SDS011;3699;51.462;6.696;2022-11-15T12:10:02;2.87;;;2.10;;
7316;SDS011;3699;51.462;6.696;2022-11-15T12:12:35;3.00;;;2.30;;
7316;SDS011;3699;51.462;6.696;2022-11-15T12:15:12;4.23;;;2.30;;
7316;SDS011;3699;51.462;6.696;2022-11-15T12:17:42;3.90;;;2.20;;
7316;SDS011;3699;51.462;6.696;2022-11-15T12:20:14;3.13;;;2.00;;
7316;SDS011;3699;51.462;6.696;2022-11-15T12:22:44;3.37;;;2.53;;
7316;SDS011;3699;51.462;6.696;2022-11-15T12:25:17;4.40;;;1.97;;
7316;SDS011;3699;51.462;6.696;2022-11-15T12:27:46;5.67;;;2.13;;
7316;SDS011;3699;51.462;6.696;2022-11-15T12:30:19;4.47;;;1.97;;
7316;SDS011;3699;51.462;6.696;2022-11-15T12:32:49;4.23;;;2.00;;
7316;SDS011;3699;51.462;6.696;2022-11-15T12:35:21;4.37;;;1.67;;
7316;SDS011;3699;51.462;6.696;2022-11-15T12:37:51;3.03;;;1.50;;
7316;SDS011;3699;51.462;6.696;2022-11-15T12:40:22;2.30;;;1.60;;
7316;SDS011;3699;51.462;6.696;2022-11-15T12:42:57;2.27;;;1.53;;
7316;SDS011;3699;51.462;6.696;2022-11-15T12:45:32;3.87;;;1.50;;
7316;SDS011;3699;51.462;6.696;2022-11-15T12:51:03;4.37;;;1.93;;
7316;SDS011;3699;51.462;6.696;2022-11-15T12:53:31;2.27;;;1.47;;
7316;SDS011;3699;51.462;6.696;2022-11-15T12:56:15;2.50;;;1.50;;
7316;SDS011;3699;51.462;6.696;2022-11-15T12:58:49;3.27;;;1.40;;
7316;SDS011;3699;51.462;6.696;2022-11-15T13:04:25;9.10;;;1.60;;
7316;SDS011;3699;51.462;6.696;2022-11-15T13:06:53;5.13;;;1.50;;
7316;SDS011;3699;51.462;6.696;2022-11-15T13:15:34;3.43;;;1.30;;
7316;SDS011;3699;51.462;6.696;2022-11-15T13:18:30;5.30;;;1.30;;
7316;SDS011;3699;51.462;6.696;2022-11-15T13:20:59;2.53;;;1.60;;
7316;SDS011;3699;51.462;6.696;2022-11-15T13:23:51;4.13;;;1.30;;
7316;SDS011;3699;51.462;6.696;2022-11-15T13:26:18;2.20;;;1.47;;
7316;SDS011;3699;51.462;6.696;2022-11-15T13:28:46;5.87;;;1.80;;
7316;SDS011;3699;51.462;6.696;2022-11-15T13:31:19;2.80;;;1.30;;
7316;SDS011;3699;51.462;6.696;2022-11-15T13:33:57;3.30;;;1.50;;
7316;SDS011;3699;51.462;6.696;2022-11-15T13:36:27;2.70;;;1.50;;
7316;SDS011;3699;51.462;6.696;2022-11-15T13:38:56;5.40;;;1.70;;
7316;SDS011;3699;51.462;6.696;2022-11-15T13:41:25;5.20;;;1.30;;
7316;SDS011;3699;51.462;6.696;2022-11-15T13:43:53;3.57;;;1.53;;
7316;SDS011;3699;51.462;6.696;2022-11-15T13:46:21;2.83;;;1.40;;
7316;SDS011;3699;51.462;6.696;2022-11-15T13:48:53;3.23;;;1.40;;
7316;SDS011;3699;51.462;6.696;2022-11-15T13:51:26;2.97;;;1.40;;
7316;SDS011;3699;51.462;6.696;2022-11-15T13:53:58;3.93;;;1.27;;
7316;SDS011;3699;51.462;6.696;2022-11-15T13:56:27;2.20;;;1.40;;
7316;SDS011;3699;51.462;6.696;2022-11-15T13:58:55;3.00;;;1.70;;
7316;SDS011;3699;51.462;6.696;2022-11-15T14:01:22;4.27;;;1.70;;
7316;SDS011;3699;51.462;6.696;2022-11-15T14:03:53;2.13;;;1.60;;
7316;SDS011;3699;51.462;6.696;2022-11-15T14:06:24;6.80;;;1.60;;
7316;SDS011;3699;51.462;6.696;2022-11-15T14:09:00;4.80;;;1.80;;
7316;SDS011;3699;51.462;6.696;2022-11-15T14:11:51;4.07;;;2.53;;
7316;SDS011;3699;51.462;6.696;2022-11-15T14:14:19;7.43;;;1.90;;
7316;SDS011;3699;51.462;6.696;2022-11-15T14:16:48;2.57;;;1.80;;
7316;SDS011;3699;51.462;6.696;2022-11-15T14:19:36;6.50;;;1.67;;
7316;SDS011;3699;51.462;6.696;2022-11-15T14:22:13;4.50;;;1.73;;
7316;SDS011;3699;51.462;6.696;2022-11-15T14:24:42;3.07;;;1.60;;
7316;SDS011;3699;51.462;6.696;2022-11-15T14:27:20;4.10;;;1.77;;
7316;SDS011;3699;51.462;6.696;2022-11-15T14:29:49;4.17;;;1.90;;
7316;SDS011;3699;51.462;6.696;2022-11-15T14:32:17;3.67;;;1.40;;
7316;SDS011;3699;51.462;6.696;2022-11-15T14:34:46;4.53;;;2.63;;
7316;SDS011;3699;51.462;6.696;2022-11-15T14:37:20;4.10;;;1.70;;
7316;SDS011;3699;51.462;6.696;2022-11-15T14:39:48;3.77;;;1.93;;
7316;SDS011;3699;51.462;6.696;2022-11-15T14:42:15;7.90;;;3.57;;
7316;SDS011;3699;51.462;6.696;2022-11-15T14:44:42;7.33;;;2.63;;
7316;SDS011;3699;51.462;6.696;2022-11-15T14:47:09;6.83;;;3.23;;
7316;SDS011;3699;51.462;6.696;2022-11-15T14:49:36;10.17;;;3.80;;
7316;SDS011;3699;51.462;6.696;2022-11-15T14:52:04;8.27;;;3.50;;
7316;SDS011;3699;51.462;6.696;2022-11-15T14:54:39;9.87;;;3.47;;
7316;SDS011;3699;51.462;6.696;2022-11-15T14:57:05;11.40;;;4.13;;
7316;SDS011;3699;51.462;6.696;2022-11-15T14:59:32;10.50;;;4.33;;
7316;SDS011;3699;51.462;6.696;2022-11-15T15:01:59;9.53;;;3.70;;
7316;SDS011;3699;51.462;6.696;2022-11-15T15:04:25;11.00;;;4.03;;
7316;SDS011;3699;51.462;6.696;2022-11-15T15:06:52;13.53;;;4.80;;
7316;SDS011;3699;51.462;6.696;2022-11-15T15:09:19;11.10;;;4.63;;
7316;SDS011;3699;51.462;6.696;2022-11-15T15:11:47;11.60;;;5.13;;
7316;SDS011;3699;51.462;6.696;2022-11-15T15:14:14;9.50;;;4.43;;
7316;SDS011;3699;51.462;6.696;2022-11-15T15:16:41;8.43;;;3.50;;
7316;SDS011;3699;51.462;6.696;2022-11-15T15:19:08;10.10;;;3.20;;
7316;SDS011;3699;51.462;6.696;2022-11-15T15:21:35;12.23;;;6.00;;
7316;SDS011;3699;51.462;6.696;2022-11-15T15:24:02;3.90;;;3.20;;
7316;SDS011;3699;51.462;6.696;2022-11-15T15:26:29;4.17;;;2.80;;
7316;SDS011;3699;51.462;6.696;2022-11-15T15:28:59;26.30;;;18.43;;
7316;SDS011;3699;51.462;6.696;2022-11-15T15:31:26;6.03;;;4.20;;
7316;SDS011;3699;51.462;6.696;2022-11-15T15:33:53;5.53;;;3.37;;
7316;SDS011;3699;51.462;6.696;2022-11-15T15:36:20;4.53;;;2.87;;
7316;SDS011;3699;51.462;6.696;2022-11-15T15:38:46;6.27;;;3.23;;
7316;SDS011;3699;51.462;6.696;2022-11-15T15:41:14;10.80;;;4.50;;
7316;SDS011;3699;51.462;6.696;2022-11-15T15:43:41;8.37;;;5.40;;